sensor_id;sensor_type;location;lat;lon;timestamp;temperature;humidity
12957;DHT22;6543;48.836;10.092;2022-11-11T00:01:44;4.30;99.90
12957;DHT22;6543;48.836;10.092;2022-11-11T00:04:11;4.50;99.90
12957;DHT22;6543;48.836;10.092;2022-11-11T00:06:39;4.60;99.90
12957;DHT22;6543;48.836;10.092;2022-11-11T00:09:06;4.70;99.90
12957;DHT22;6543;48.836;10.092;2022-11-11T00:11:32;4.70;99.90
12957;DHT22;6543;48.836;10.092;2022-11-11T00:13:59;4.70;99.90
12957;DHT22;6543;48.836;10.092;2022-11-11T00:16:26;4.80;99.90
12957;DHT22;6543;48.836;10.092;2022-11-11T00:19:13;4.80;99.90
12957;DHT22;6543;48.836;10.092;2022-11-11T00:21:58;4.80;99.90
12957;DHT22;6543;48.836;10.092;2022-11-11T00:24:43;4.90;99.90
12957;DHT22;6543;48.836;10.092;2022-11-11T00:27:27;4.90;99.90
12957;DHT22;6543;48.836;10.092;2022-11-11T00:29:54;4.70;99.90
12957;DHT22;6543;48.836;10.092;2022-11-11T00:32:20;4.50;99.90
12957;DHT22;6543;48.836;10.092;2022-11-11T00:34:53;4.50;99.90
12957;DHT22;6543;48.836;10.092;2022-11-11T00:37:40;4.40;99.90
12957;DHT22;6543;48.836;10.092;2022-11-11T00:40:09;4.30;99.90
12957;DHT22;6543;48.836;10.092;2022-11-11T00:42:36;4.20;99.90
12957;DHT22;6543;48.836;10.092;2022-11-11T00:45:04;4.30;99.90
12957;DHT22;6543;48.836;10.092;2022-11-11T00:47:31;4.30;99.90
12957;DHT22;6543;48.836;10.092;2022-11-11T00:50:18;4.40;99.90
12957;DHT22;6543;48.836;10.092;2022-11-11T00:53:08;4.50;99.90
12957;DHT22;6543;48.836;10.092;2022-11-11T00:55:35;4.40;99.90
12957;DHT22;6543;48.836;10.092;2022-11-11T00:58:02;4.40;99.90
12957;DHT22;6543;48.836;10.092;2022-11-11T01:00:29;4.30;99.90
12957;DHT22;6543;48.836;10.092;2022-11-11T01:02:56;4.50;99.90
12957;DHT22;6543;48.836;10.092;2022-11-11T01:05:23;4.50;99.90
12957;DHT22;6543;48.836;10.092;2022-11-11T01:07:53;4.60;99.90
12957;DHT22;6543;48.836;10.092;2022-11-11T01:10:22;4.90;99.90
12957;DHT22;6543;48.836;10.092;2022-11-11T01:13:13;4.80;99.90
12957;DHT22;6543;48.836;10.092;2022-11-11T01:15:42;4.90;99.90
12957;DHT22;6543;48.836;10.092;2022-11-11T01:18:10;4.80;99.90
12957;DHT22;6543;48.836;10.092;2022-11-11T01:20:38;4.80;99.90
12957;DHT22;6543;48.836;10.092;2022-11-11T01:23:06;4.70;99.90
12957;DHT22;6543;48.836;10.092;2022-11-11T01:25:36;4.50;99.90
12957;DHT22;6543;48.836;10.092;2022-11-11T01:28:04;4.50;99.90
12957;DHT22;6543;48.836;10.092;2022-11-11T01:30:33;4.50;99.90
12957;DHT22;6543;48.836;10.092;2022-11-11T01:33:00;4.50;99.90
12957;DHT22;6543;48.836;10.092;2022-11-11T01:35:27;3.20;99.90
12957;DHT22;6543;48.836;10.092;2022-11-11T01:37:55;4.50;99.90
12957;DHT22;6543;48.836;10.092;2022-11-11T01:40:22;4.40;99.90
12957;DHT22;6543;48.836;10.092;2022-11-11T01:42:52;4.30;99.90
12957;DHT22;6543;48.836;10.092;2022-11-11T01:45:49;4.20;99.90
12957;DHT22;6543;48.836;10.092;2022-11-11T01:48:24;4.30;99.90
12957;DHT22;6543;48.836;10.092;2022-11-11T01:51:16;4.30;99.90
12957;DHT22;6543;48.836;10.092;2022-11-11T01:53:46;4.30;99.90
12957;DHT22;6543;48.836;10.092;2022-11-11T01:56:15;4.40;99.90
12957;DHT22;6543;48.836;10.092;2022-11-11T01:58:43;4.50;99.90
12957;DHT22;6543;48.836;10.092;2022-11-11T02:01:10;4.60;99.90
12957;DHT22;6543;48.836;10.092;2022-11-11T02:03:39;4.70;99.90
12957;DHT22;6543;48.836;10.092;2022-11-11T02:06:27;4.70;99.90
12957;DHT22;6543;48.836;10.092;2022-11-11T02:08:53;4.50;99.90
12957;DHT22;6543;48.836;10.092;2022-11-11T02:11:21;4.50;99.90
12957;DHT22;6543;48.836;10.092;2022-11-11T02:14:04;4.50;99.90
12957;DHT22;6543;48.836;10.092;2022-11-11T02:16:49;4.40;99.90
12957;DHT22;6543;48.836;10.092;2022-11-11T02:19:17;4.30;99.90
12957;DHT22;6543;48.836;10.092;2022-11-11T02:21:52;4.30;99.90
12957;DHT22;6543;48.836;10.092;2022-11-11T02:24:22;4.30;99.90
12957;DHT22;6543;48.836;10.092;2022-11-11T02:26:51;4.20;99.90
12957;DHT22;6543;48.836;10.092;2022-11-11T02:29:19;4.30;99.90
12957;DHT22;6543;48.836;10.092;2022-11-11T02:31:46;4.20;99.90
12957;DHT22;6543;48.836;10.092;2022-11-11T02:34:13;4.20;99.90
12957;DHT22;6543;48.836;10.092;2022-11-11T02:36:41;4.10;99.90
12957;DHT22;6543;48.836;10.092;2022-11-11T02:39:09;4.10;99.90
12957;DHT22;6543;48.836;10.092;2022-11-11T02:41:37;4.10;99.90
12957;DHT22;6543;48.836;10.092;2022-11-11T02:44:22;4.00;99.90
12957;DHT22;6543;48.836;10.092;2022-11-11T02:46:49;4.00;99.90
12957;DHT22;6543;48.836;10.092;2022-11-11T02:49:16;3.90;99.90
12957;DHT22;6543;48.836;10.092;2022-11-11T02:51:43;4.00;99.90
12957;DHT22;6543;48.836;10.092;2022-11-11T02:54:11;4.10;99.90
12957;DHT22;6543;48.836;10.092;2022-11-11T02:56:40;4.20;99.90
12957;DHT22;6543;48.836;10.092;2022-11-11T02:59:24;4.10;99.90
12957;DHT22;6543;48.836;10.092;2022-11-11T03:01:50;4.10;99.90
12957;DHT22;6543;48.836;10.092;2022-11-11T03:04:17;4.10;99.90
12957;DHT22;6543;48.836;10.092;2022-11-11T03:06:44;4.00;99.90
12957;DHT22;6543;48.836;10.092;2022-11-11T03:09:11;3.90;99.90
12957;DHT22;6543;48.836;10.092;2022-11-11T03:11:39;3.90;99.90
12957;DHT22;6543;48.836;10.092;2022-11-11T03:14:06;3.80;99.90
12957;DHT22;6543;48.836;10.092;2022-11-11T03:16:33;3.70;99.90
12957;DHT22;6543;48.836;10.092;2022-11-11T03:19:18;3.70;99.90
12957;DHT22;6543;48.836;10.092;2022-11-11T03:21:44;3.70;99.90
12957;DHT22;6543;48.836;10.092;2022-11-11T03:24:10;3.70;99.90
12957;DHT22;6543;48.836;10.092;2022-11-11T03:26:37;3.80;99.90
12957;DHT22;6543;48.836;10.092;2022-11-11T03:29:05;4.00;99.90
12957;DHT22;6543;48.836;10.092;2022-11-11T03:31:31;4.10;99.90
12957;DHT22;6543;48.836;10.092;2022-11-11T03:33:58;4.00;99.90
12957;DHT22;6543;48.836;10.092;2022-11-11T03:36:43;3.90;99.90
12957;DHT22;6543;48.836;10.092;2022-11-11T03:39:27;3.90;99.90
12957;DHT22;6543;48.836;10.092;2022-11-11T03:41:54;3.90;99.90
12957;DHT22;6543;48.836;10.092;2022-11-11T03:44:22;3.90;99.90
12957;DHT22;6543;48.836;10.092;2022-11-11T03:46:49;3.90;99.90
12957;DHT22;6543;48.836;10.092;2022-11-11T03:49:16;3.90;99.90
12957;DHT22;6543;48.836;10.092;2022-11-11T03:51:43;4.00;99.90
12957;DHT22;6543;48.836;10.092;2022-11-11T03:54:10;4.10;99.90
12957;DHT22;6543;48.836;10.092;2022-11-11T03:56:36;4.00;99.90
12957;DHT22;6543;48.836;10.092;2022-11-11T03:59:03;4.20;99.90
12957;DHT22;6543;48.836;10.092;2022-11-11T04:01:31;4.40;99.90
12957;DHT22;6543;48.836;10.092;2022-11-11T04:04:16;4.40;99.90
12957;DHT22;6543;48.836;10.092;2022-11-11T04:07:00;4.30;99.90
12957;DHT22;6543;48.836;10.092;2022-11-11T04:09:46;4.40;99.90
12957;DHT22;6543;48.836;10.092;2022-11-11T04:12:32;4.30;99.90
12957;DHT22;6543;48.836;10.092;2022-11-11T04:15:21;4.10;99.90
12957;DHT22;6543;48.836;10.092;2022-11-11T04:18:06;4.10;99.90
12957;DHT22;6543;48.836;10.092;2022-11-11T04:20:33;3.80;99.90
12957;DHT22;6543;48.836;10.092;2022-11-11T04:23:17;3.70;99.90
12957;DHT22;6543;48.836;10.092;2022-11-11T04:25:44;3.80;99.90
12957;DHT22;6543;48.836;10.092;2022-11-11T04:28:13;4.10;99.90
12957;DHT22;6543;48.836;10.092;2022-11-11T04:30:58;4.30;99.90
12957;DHT22;6543;48.836;10.092;2022-11-11T04:33:26;4.30;99.90
12957;DHT22;6543;48.836;10.092;2022-11-11T04:35:53;4.40;99.90
12957;DHT22;6543;48.836;10.092;2022-11-11T04:38:20;4.30;99.90
12957;DHT22;6543;48.836;10.092;2022-11-11T04:41:04;4.20;99.90
12957;DHT22;6543;48.836;10.092;2022-11-11T04:43:33;4.00;99.90
12957;DHT22;6543;48.836;10.092;2022-11-11T04:46:21;3.90;99.90
12957;DHT22;6543;48.836;10.092;2022-11-11T04:48:48;3.70;99.90
12957;DHT22;6543;48.836;10.092;2022-11-11T04:51:15;3.70;99.90
12957;DHT22;6543;48.836;10.092;2022-11-11T04:53:42;3.60;99.90
12957;DHT22;6543;48.836;10.092;2022-11-11T04:56:09;3.60;99.90
12957;DHT22;6543;48.836;10.092;2022-11-11T04:58:53;3.60;99.90
12957;DHT22;6543;48.836;10.092;2022-11-11T05:01:34;3.60;99.90
12957;DHT22;6543;48.836;10.092;2022-11-11T05:04:19;3.80;99.90
12957;DHT22;6543;48.836;10.092;2022-11-11T05:06:46;3.70;99.90
12957;DHT22;6543;48.836;10.092;2022-11-11T05:09:30;3.70;99.90
12957;DHT22;6543;48.836;10.092;2022-11-11T05:11:57;3.90;99.90
12957;DHT22;6543;48.836;10.092;2022-11-11T05:14:24;3.90;99.90
12957;DHT22;6543;48.836;10.092;2022-11-11T05:17:08;4.00;99.90
12957;DHT22;6543;48.836;10.092;2022-11-11T05:19:54;3.90;99.90
12957;DHT22;6543;48.836;10.092;2022-11-11T05:22:39;3.80;99.90
12957;DHT22;6543;48.836;10.092;2022-11-11T05:25:07;3.80;99.90
12957;DHT22;6543;48.836;10.092;2022-11-11T05:27:52;3.70;99.90
12957;DHT22;6543;48.836;10.092;2022-11-11T05:30:19;3.70;99.90
12957;DHT22;6543;48.836;10.092;2022-11-11T05:32:47;3.60;99.90
12957;DHT22;6543;48.836;10.092;2022-11-11T05:35:16;3.60;99.90
12957;DHT22;6543;48.836;10.092;2022-11-11T05:37:43;3.60;99.90
12957;DHT22;6543;48.836;10.092;2022-11-11T05:40:31;3.50;99.90
12957;DHT22;6543;48.836;10.092;2022-11-11T05:42:58;3.40;99.90
12957;DHT22;6543;48.836;10.092;2022-11-11T05:45:24;3.40;99.90
12957;DHT22;6543;48.836;10.092;2022-11-11T05:47:51;3.40;99.90
12957;DHT22;6543;48.836;10.092;2022-11-11T05:50:19;3.40;99.90
12957;DHT22;6543;48.836;10.092;2022-11-11T05:52:47;3.50;99.90
12957;DHT22;6543;48.836;10.092;2022-11-11T05:55:14;3.50;99.90
12957;DHT22;6543;48.836;10.092;2022-11-11T06:00:27;3.80;99.90
12957;DHT22;6543;48.836;10.092;2022-11-11T06:02:56;3.80;99.90
12957;DHT22;6543;48.836;10.092;2022-11-11T06:05:28;3.80;99.90
12957;DHT22;6543;48.836;10.092;2022-11-11T06:07:55;3.70;99.90
12957;DHT22;6543;48.836;10.092;2022-11-11T06:10:22;3.60;99.90
12957;DHT22;6543;48.836;10.092;2022-11-11T06:12:58;3.50;99.90
12957;DHT22;6543;48.836;10.092;2022-11-11T06:15:30;3.40;99.90
12957;DHT22;6543;48.836;10.092;2022-11-11T06:17:57;3.40;99.90
12957;DHT22;6543;48.836;10.092;2022-11-11T06:20:24;3.50;99.90
12957;DHT22;6543;48.836;10.092;2022-11-11T06:22:53;3.40;99.90
12957;DHT22;6543;48.836;10.092;2022-11-11T06:25:23;3.40;99.90
12957;DHT22;6543;48.836;10.092;2022-11-11T06:28:07;3.40;99.90
12957;DHT22;6543;48.836;10.092;2022-11-11T06:30:35;3.40;99.90
12957;DHT22;6543;48.836;10.092;2022-11-11T06:33:02;3.40;99.90
12957;DHT22;6543;48.836;10.092;2022-11-11T06:35:29;3.40;99.90
12957;DHT22;6543;48.836;10.092;2022-11-11T06:37:57;3.40;99.90
12957;DHT22;6543;48.836;10.092;2022-11-11T06:40:24;3.40;99.90
12957;DHT22;6543;48.836;10.092;2022-11-11T06:42:51;3.40;99.90
12957;DHT22;6543;48.836;10.092;2022-11-11T06:45:18;3.40;99.90
12957;DHT22;6543;48.836;10.092;2022-11-11T06:47:45;3.40;99.90
12957;DHT22;6543;48.836;10.092;2022-11-11T06:50:11;3.40;99.90
12957;DHT22;6543;48.836;10.092;2022-11-11T06:52:38;3.40;99.90
12957;DHT22;6543;48.836;10.092;2022-11-11T06:55:07;3.50;99.90
12957;DHT22;6543;48.836;10.092;2022-11-11T06:57:34;3.50;99.90
12957;DHT22;6543;48.836;10.092;2022-11-11T07:00:01;3.50;99.90
12957;DHT22;6543;48.836;10.092;2022-11-11T07:02:28;3.60;99.90
12957;DHT22;6543;48.836;10.092;2022-11-11T07:04:55;3.60;99.90
12957;DHT22;6543;48.836;10.092;2022-11-11T07:07:21;3.60;99.90
12957;DHT22;6543;48.836;10.092;2022-11-11T07:09:48;3.60;99.90
12957;DHT22;6543;48.836;10.092;2022-11-11T07:12:17;3.70;99.90
12957;DHT22;6543;48.836;10.092;2022-11-11T07:14:44;3.80;99.90
12957;DHT22;6543;48.836;10.092;2022-11-11T07:17:10;3.90;99.90
12957;DHT22;6543;48.836;10.092;2022-11-11T07:19:37;4.00;99.90
12957;DHT22;6543;48.836;10.092;2022-11-11T07:22:04;4.10;99.90
12957;DHT22;6543;48.836;10.092;2022-11-11T07:24:31;4.10;99.90
12957;DHT22;6543;48.836;10.092;2022-11-11T07:26:58;4.30;99.90
12957;DHT22;6543;48.836;10.092;2022-11-11T07:29:28;4.30;99.90
12957;DHT22;6543;48.836;10.092;2022-11-11T07:31:54;4.40;99.90
12957;DHT22;6543;48.836;10.092;2022-11-11T07:34:21;4.60;99.90
12957;DHT22;6543;48.836;10.092;2022-11-11T07:36:48;4.60;99.90
12957;DHT22;6543;48.836;10.092;2022-11-11T07:39:15;4.70;99.90
12957;DHT22;6543;48.836;10.092;2022-11-11T07:41:42;4.80;99.90
12957;DHT22;6543;48.836;10.092;2022-11-11T07:44:09;4.90;99.90
12957;DHT22;6543;48.836;10.092;2022-11-11T07:46:37;5.00;99.90
12957;DHT22;6543;48.836;10.092;2022-11-11T07:49:04;5.00;99.90
12957;DHT22;6543;48.836;10.092;2022-11-11T07:51:30;5.00;99.90
12957;DHT22;6543;48.836;10.092;2022-11-11T07:53:57;5.00;99.90
12957;DHT22;6543;48.836;10.092;2022-11-11T07:56:24;5.00;99.90
12957;DHT22;6543;48.836;10.092;2022-11-11T07:58:51;5.00;99.90
12957;DHT22;6543;48.836;10.092;2022-11-11T08:01:18;5.00;99.90
12957;DHT22;6543;48.836;10.092;2022-11-11T08:03:47;5.10;99.90
12957;DHT22;6543;48.836;10.092;2022-11-11T08:06:17;5.10;99.90
12957;DHT22;6543;48.836;10.092;2022-11-11T08:08:44;5.20;99.90
12957;DHT22;6543;48.836;10.092;2022-11-11T08:11:11;5.30;99.90
12957;DHT22;6543;48.836;10.092;2022-11-11T08:13:38;5.40;99.90
12957;DHT22;6543;48.836;10.092;2022-11-11T08:16:09;5.50;99.90
12957;DHT22;6543;48.836;10.092;2022-11-11T08:18:36;5.60;99.90
12957;DHT22;6543;48.836;10.092;2022-11-11T08:21:05;5.70;99.90
12957;DHT22;6543;48.836;10.092;2022-11-11T08:23:33;5.80;99.90
12957;DHT22;6543;48.836;10.092;2022-11-11T08:26:00;6.00;99.90
12957;DHT22;6543;48.836;10.092;2022-11-11T08:28:29;6.20;99.90
12957;DHT22;6543;48.836;10.092;2022-11-11T08:30:58;6.30;99.90
12957;DHT22;6543;48.836;10.092;2022-11-11T08:33:25;6.40;99.90
12957;DHT22;6543;48.836;10.092;2022-11-11T08:35:52;6.50;99.90
12957;DHT22;6543;48.836;10.092;2022-11-11T08:38:21;6.60;99.90
12957;DHT22;6543;48.836;10.092;2022-11-11T08:40:48;6.70;99.90
12957;DHT22;6543;48.836;10.092;2022-11-11T08:43:15;6.80;99.90
12957;DHT22;6543;48.836;10.092;2022-11-11T08:45:42;7.00;99.90
12957;DHT22;6543;48.836;10.092;2022-11-11T08:48:09;7.10;99.90
12957;DHT22;6543;48.836;10.092;2022-11-11T08:50:36;7.20;99.90
12957;DHT22;6543;48.836;10.092;2022-11-11T08:53:04;7.40;99.90
12957;DHT22;6543;48.836;10.092;2022-11-11T08:55:33;7.40;99.90
12957;DHT22;6543;48.836;10.092;2022-11-11T08:58:01;7.50;99.90
12957;DHT22;6543;48.836;10.092;2022-11-11T09:00:31;7.60;99.90
12957;DHT22;6543;48.836;10.092;2022-11-11T09:03:00;7.80;99.90
12957;DHT22;6543;48.836;10.092;2022-11-11T09:05:27;7.90;99.90
12957;DHT22;6543;48.836;10.092;2022-11-11T09:07:55;8.10;99.90
12957;DHT22;6543;48.836;10.092;2022-11-11T09:10:22;8.30;99.90
12957;DHT22;6543;48.836;10.092;2022-11-11T09:12:55;8.50;99.90
12957;DHT22;6543;48.836;10.092;2022-11-11T09:15:22;8.80;99.90
12957;DHT22;6543;48.836;10.092;2022-11-11T09:17:48;9.10;99.90
12957;DHT22;6543;48.836;10.092;2022-11-11T09:20:15;9.30;99.90
12957;DHT22;6543;48.836;10.092;2022-11-11T09:22:43;9.50;99.90
12957;DHT22;6543;48.836;10.092;2022-11-11T09:25:10;9.60;99.90
12957;DHT22;6543;48.836;10.092;2022-11-11T09:27:38;9.80;99.90
12957;DHT22;6543;48.836;10.092;2022-11-11T09:30:08;10.10;99.90
12957;DHT22;6543;48.836;10.092;2022-11-11T09:32:36;10.10;99.90
12957;DHT22;6543;48.836;10.092;2022-11-11T09:35:03;10.20;99.90
12957;DHT22;6543;48.836;10.092;2022-11-11T09:37:30;10.40;99.90
12957;DHT22;6543;48.836;10.092;2022-11-11T09:39:57;10.40;99.90
12957;DHT22;6543;48.836;10.092;2022-11-11T09:42:32;10.90;99.90
12957;DHT22;6543;48.836;10.092;2022-11-11T09:45:15;10.60;99.90
12957;DHT22;6543;48.836;10.092;2022-11-11T09:47:51;10.80;99.90
12957;DHT22;6543;48.836;10.092;2022-11-11T09:50:23;10.90;99.90
12957;DHT22;6543;48.836;10.092;2022-11-11T09:52:56;10.90;99.90
12957;DHT22;6543;48.836;10.092;2022-11-11T09:55:28;11.00;99.90
12957;DHT22;6543;48.836;10.092;2022-11-11T09:57:59;11.20;99.90
12957;DHT22;6543;48.836;10.092;2022-11-11T10:00:30;11.10;99.90
12957;DHT22;6543;48.836;10.092;2022-11-11T10:03:05;11.30;99.90
12957;DHT22;6543;48.836;10.092;2022-11-11T10:05:40;11.50;99.90
12957;DHT22;6543;48.836;10.092;2022-11-11T10:08:13;11.70;99.90
12957;DHT22;6543;48.836;10.092;2022-11-11T10:10:43;11.80;99.90
12957;DHT22;6543;48.836;10.092;2022-11-11T10:13:13;11.90;99.90
12957;DHT22;6543;48.836;10.092;2022-11-11T10:15:48;12.00;99.90
12957;DHT22;6543;48.836;10.092;2022-11-11T10:18:41;12.10;99.90
12957;DHT22;6543;48.836;10.092;2022-11-11T10:21:14;12.40;99.90
12957;DHT22;6543;48.836;10.092;2022-11-11T10:23:45;12.60;99.90
12957;DHT22;6543;48.836;10.092;2022-11-11T10:26:18;12.80;99.90
12957;DHT22;6543;48.836;10.092;2022-11-11T10:28:48;13.00;99.90
12957;DHT22;6543;48.836;10.092;2022-11-11T10:31:20;13.10;99.90
12957;DHT22;6543;48.836;10.092;2022-11-11T10:33:51;13.20;99.90
12957;DHT22;6543;48.836;10.092;2022-11-11T10:36:20;13.30;99.90
12957;DHT22;6543;48.836;10.092;2022-11-11T10:38:51;13.30;99.90
12957;DHT22;6543;48.836;10.092;2022-11-11T10:41:24;13.40;99.90
12957;DHT22;6543;48.836;10.092;2022-11-11T10:43:52;13.30;99.90
12957;DHT22;6543;48.836;10.092;2022-11-11T10:46:24;13.40;99.90
12957;DHT22;6543;48.836;10.092;2022-11-11T10:48:56;13.40;99.90
12957;DHT22;6543;48.836;10.092;2022-11-11T10:51:25;13.40;99.90
12957;DHT22;6543;48.836;10.092;2022-11-11T10:54:00;13.40;99.90
12957;DHT22;6543;48.836;10.092;2022-11-11T10:56:34;13.40;99.90
12957;DHT22;6543;48.836;10.092;2022-11-11T10:59:10;13.50;99.90
12957;DHT22;6543;48.836;10.092;2022-11-11T11:01:45;13.60;99.90
12957;DHT22;6543;48.836;10.092;2022-11-11T11:04:18;13.60;99.90
12957;DHT22;6543;48.836;10.092;2022-11-11T11:06:47;13.60;99.90
12957;DHT22;6543;48.836;10.092;2022-11-11T11:09:20;13.60;99.90
12957;DHT22;6543;48.836;10.092;2022-11-11T11:11:51;13.60;99.90
12957;DHT22;6543;48.836;10.092;2022-11-11T11:14:23;13.70;99.90
12957;DHT22;6543;48.836;10.092;2022-11-11T11:16:55;13.60;99.90
12957;DHT22;6543;48.836;10.092;2022-11-11T11:19:25;13.70;99.90
12957;DHT22;6543;48.836;10.092;2022-11-11T11:21:54;13.70;99.90
12957;DHT22;6543;48.836;10.092;2022-11-11T11:24:24;14.00;99.90
12957;DHT22;6543;48.836;10.092;2022-11-11T11:26:53;14.00;99.90
12957;DHT22;6543;48.836;10.092;2022-11-11T11:29:24;14.10;99.90
12957;DHT22;6543;48.836;10.092;2022-11-11T11:31:53;14.10;99.90
12957;DHT22;6543;48.836;10.092;2022-11-11T11:34:20;14.10;99.90
12957;DHT22;6543;48.836;10.092;2022-11-11T11:37:00;14.10;99.90
12957;DHT22;6543;48.836;10.092;2022-11-11T11:39:34;14.10;99.90
12957;DHT22;6543;48.836;10.092;2022-11-11T11:42:01;14.10;99.90
12957;DHT22;6543;48.836;10.092;2022-11-11T11:44:29;14.10;99.90
12957;DHT22;6543;48.836;10.092;2022-11-11T11:47:06;14.10;99.90
12957;DHT22;6543;48.836;10.092;2022-11-11T11:49:46;14.10;99.90
12957;DHT22;6543;48.836;10.092;2022-11-11T11:52:21;14.20;99.90
12957;DHT22;6543;48.836;10.092;2022-11-11T11:54:57;14.20;99.90
12957;DHT22;6543;48.836;10.092;2022-11-11T11:57:39;14.30;99.90
12957;DHT22;6543;48.836;10.092;2022-11-11T12:00:14;14.20;99.90
12957;DHT22;6543;48.836;10.092;2022-11-11T12:03:18;14.30;99.90
12957;DHT22;6543;48.836;10.092;2022-11-11T12:05:57;14.30;99.90
12957;DHT22;6543;48.836;10.092;2022-11-11T12:08:46;14.30;99.90
12957;DHT22;6543;48.836;10.092;2022-11-11T12:11:21;14.30;99.90
12957;DHT22;6543;48.836;10.092;2022-11-11T12:14:02;14.30;99.90
12957;DHT22;6543;48.836;10.092;2022-11-11T12:16:35;14.40;99.90
12957;DHT22;6543;48.836;10.092;2022-11-11T12:19:19;14.50;99.90
12957;DHT22;6543;48.836;10.092;2022-11-11T12:21:57;14.50;99.90
12957;DHT22;6543;48.836;10.092;2022-11-11T12:24:37;14.60;99.90
12957;DHT22;6543;48.836;10.092;2022-11-11T12:27:15;14.70;99.90
12957;DHT22;6543;48.836;10.092;2022-11-11T12:29:59;14.80;99.90
12957;DHT22;6543;48.836;10.092;2022-11-11T12:32:46;14.80;99.90
12957;DHT22;6543;48.836;10.092;2022-11-11T12:35:39;14.80;99.90
12957;DHT22;6543;48.836;10.092;2022-11-11T12:38:22;14.90;99.90
12957;DHT22;6543;48.836;10.092;2022-11-11T12:41:00;14.90;99.90
12957;DHT22;6543;48.836;10.092;2022-11-11T12:43:36;14.80;99.90
12957;DHT22;6543;48.836;10.092;2022-11-11T12:46:15;14.80;99.90
12957;DHT22;6543;48.836;10.092;2022-11-11T12:48:53;14.80;99.90
12957;DHT22;6543;48.836;10.092;2022-11-11T12:51:36;14.70;99.90
12957;DHT22;6543;48.836;10.092;2022-11-11T12:54:16;14.80;99.90
12957;DHT22;6543;48.836;10.092;2022-11-11T12:56:50;14.90;99.90
12957;DHT22;6543;48.836;10.092;2022-11-11T12:59:28;15.00;99.90
12957;DHT22;6543;48.836;10.092;2022-11-11T13:02:06;14.80;99.90
12957;DHT22;6543;48.836;10.092;2022-11-11T13:04:51;14.80;99.90
12957;DHT22;6543;48.836;10.092;2022-11-11T13:07:54;14.70;99.90
12957;DHT22;6543;48.836;10.092;2022-11-11T13:10:27;14.70;99.90
12957;DHT22;6543;48.836;10.092;2022-11-11T13:13:08;14.70;99.90
12957;DHT22;6543;48.836;10.092;2022-11-11T13:15:38;14.80;99.90
12957;DHT22;6543;48.836;10.092;2022-11-11T13:18:09;14.90;99.90
12957;DHT22;6543;48.836;10.092;2022-11-11T13:20:45;14.80;99.90
12957;DHT22;6543;48.836;10.092;2022-11-11T13:23:17;14.80;99.90
12957;DHT22;6543;48.836;10.092;2022-11-11T13:25:46;14.80;99.90
12957;DHT22;6543;48.836;10.092;2022-11-11T13:28:18;14.90;99.90
12957;DHT22;6543;48.836;10.092;2022-11-11T13:31:02;14.80;99.90
12957;DHT22;6543;48.836;10.092;2022-11-11T13:33:37;14.70;99.90
12957;DHT22;6543;48.836;10.092;2022-11-11T13:36:07;14.70;99.90
12957;DHT22;6543;48.836;10.092;2022-11-11T13:38:42;14.70;99.90
12957;DHT22;6543;48.836;10.092;2022-11-11T13:41:11;14.60;99.90
12957;DHT22;6543;48.836;10.092;2022-11-11T13:43:42;14.60;99.90
12957;DHT22;6543;48.836;10.092;2022-11-11T13:46:32;14.70;99.90
12957;DHT22;6543;48.836;10.092;2022-11-11T13:49:00;14.70;99.90
12957;DHT22;6543;48.836;10.092;2022-11-11T13:51:33;14.80;99.90
12957;DHT22;6543;48.836;10.092;2022-11-11T13:54:05;14.80;99.90
12957;DHT22;6543;48.836;10.092;2022-11-11T13:56:36;14.70;99.90
12957;DHT22;6543;48.836;10.092;2022-11-11T13:59:05;14.70;99.90
12957;DHT22;6543;48.836;10.092;2022-11-11T14:01:33;14.70;99.90
12957;DHT22;6543;48.836;10.092;2022-11-11T14:04:05;14.50;99.90
12957;DHT22;6543;48.836;10.092;2022-11-11T14:06:51;14.40;99.90
12957;DHT22;6543;48.836;10.092;2022-11-11T14:09:55;14.50;99.90
12957;DHT22;6543;48.836;10.092;2022-11-11T14:12:33;14.50;99.90
12957;DHT22;6543;48.836;10.092;2022-11-11T14:15:01;14.40;99.90
12957;DHT22;6543;48.836;10.092;2022-11-11T14:17:33;14.40;99.90
12957;DHT22;6543;48.836;10.092;2022-11-11T14:23:21;14.40;99.90
12957;DHT22;6543;48.836;10.092;2022-11-11T14:26:14;14.40;99.90
12957;DHT22;6543;48.836;10.092;2022-11-11T14:28:48;14.30;99.90
12957;DHT22;6543;48.836;10.092;2022-11-11T14:31:46;14.20;99.90
12957;DHT22;6543;48.836;10.092;2022-11-11T14:34:22;14.10;99.90
12957;DHT22;6543;48.836;10.092;2022-11-11T14:36:55;14.00;99.90
12957;DHT22;6543;48.836;10.092;2022-11-11T14:39:36;13.90;99.90
12957;DHT22;6543;48.836;10.092;2022-11-11T14:42:04;13.80;99.90
12957;DHT22;6543;48.836;10.092;2022-11-11T14:44:52;13.70;99.90
12957;DHT22;6543;48.836;10.092;2022-11-11T14:47:37;13.60;99.90
12957;DHT22;6543;48.836;10.092;2022-11-11T14:50:40;13.50;99.90
12957;DHT22;6543;48.836;10.092;2022-11-11T14:53:11;13.40;99.90
12957;DHT22;6543;48.836;10.092;2022-11-11T14:55:40;13.30;99.90
12957;DHT22;6543;48.836;10.092;2022-11-11T14:58:10;14.00;99.90
12957;DHT22;6543;48.836;10.092;2022-11-11T15:00:48;13.30;99.90
12957;DHT22;6543;48.836;10.092;2022-11-11T15:03:23;13.20;99.90
12957;DHT22;6543;48.836;10.092;2022-11-11T15:05:55;13.10;99.90
12957;DHT22;6543;48.836;10.092;2022-11-11T15:08:29;13.00;99.90
12957;DHT22;6543;48.836;10.092;2022-11-11T15:11:11;12.90;99.90
12957;DHT22;6543;48.836;10.092;2022-11-11T15:14:02;12.60;99.90
12957;DHT22;6543;48.836;10.092;2022-11-11T15:16:49;12.50;99.90
12957;DHT22;6543;48.836;10.092;2022-11-11T15:19:38;12.30;99.90
12957;DHT22;6543;48.836;10.092;2022-11-11T15:22:31;12.10;99.90
12957;DHT22;6543;48.836;10.092;2022-11-11T15:25:14;11.90;99.90
12957;DHT22;6543;48.836;10.092;2022-11-11T15:27:49;11.80;99.90
12957;DHT22;6543;48.836;10.092;2022-11-11T15:30:21;11.70;99.90
12957;DHT22;6543;48.836;10.092;2022-11-11T15:33:01;11.60;99.90
12957;DHT22;6543;48.836;10.092;2022-11-11T15:35:35;10.60;99.90
12957;DHT22;6543;48.836;10.092;2022-11-11T15:38:12;11.40;99.90
12957;DHT22;6543;48.836;10.092;2022-11-11T15:40:45;11.30;99.90
12957;DHT22;6543;48.836;10.092;2022-11-11T15:43:15;11.20;99.90
12957;DHT22;6543;48.836;10.092;2022-11-11T15:45:43;11.10;99.90
12957;DHT22;6543;48.836;10.092;2022-11-11T15:48:18;10.90;99.90
12957;DHT22;6543;48.836;10.092;2022-11-11T15:50:46;10.80;99.90
12957;DHT22;6543;48.836;10.092;2022-11-11T15:53:18;10.60;99.90
12957;DHT22;6543;48.836;10.092;2022-11-11T15:55:52;10.50;99.90
12957;DHT22;6543;48.836;10.092;2022-11-11T15:58:25;10.40;99.90
12957;DHT22;6543;48.836;10.092;2022-11-11T16:00:52;10.30;99.90
12957;DHT22;6543;48.836;10.092;2022-11-11T16:03:24;10.30;99.90
12957;DHT22;6543;48.836;10.092;2022-11-11T16:05:52;10.20;99.90
12957;DHT22;6543;48.836;10.092;2022-11-11T16:08:19;10.00;99.90
12957;DHT22;6543;48.836;10.092;2022-11-11T16:10:52;10.00;99.90
12957;DHT22;6543;48.836;10.092;2022-11-11T16:13:21;9.90;99.90
12957;DHT22;6543;48.836;10.092;2022-11-11T16:15:51;9.90;99.90
12957;DHT22;6543;48.836;10.092;2022-11-11T16:18:23;9.80;99.90
12957;DHT22;6543;48.836;10.092;2022-11-11T16:20:52;9.70;99.90